sensor_id;sensor_type;location;lat;lon;timestamp;temperature;humidity
45207;DHT22;30950;53.086;21.576;2023-08-21T00:01:58;22.10;99.90
45207;DHT22;30950;53.086;21.576;2023-08-21T00:04:26;22.10;99.90
45207;DHT22;30950;53.086;21.576;2023-08-21T00:06:53;22.00;99.90
45207;DHT22;30950;53.086;21.576;2023-08-21T00:09:21;22.00;99.90
45207;DHT22;30950;53.086;21.576;2023-08-21T00:11:48;22.00;99.90
45207;DHT22;30950;53.086;21.576;2023-08-21T00:14:15;21.90;99.90
45207;DHT22;30950;53.086;21.576;2023-08-21T00:16:43;21.80;99.90
45207;DHT22;30950;53.086;21.576;2023-08-21T00:19:10;21.90;99.90
45207;DHT22;30950;53.086;21.576;2023-08-21T00:21:38;21.80;99.90
45207;DHT22;30950;53.086;21.576;2023-08-21T00:24:05;21.80;99.90
45207;DHT22;30950;53.086;21.576;2023-08-21T00:26:32;21.80;99.90
45207;DHT22;30950;53.086;21.576;2023-08-21T00:29:00;21.70;99.90
45207;DHT22;30950;53.086;21.576;2023-08-21T00:31:27;21.70;99.90
45207;DHT22;30950;53.086;21.576;2023-08-21T00:33:55;21.60;99.90
45207;DHT22;30950;53.086;21.576;2023-08-21T00:36:22;21.60;99.90
45207;DHT22;30950;53.086;21.576;2023-08-21T00:38:50;21.60;99.90
45207;DHT22;30950;53.086;21.576;2023-08-21T00:41:17;21.50;99.90
45207;DHT22;30950;53.086;21.576;2023-08-21T00:43:46;21.50;99.90
45207;DHT22;30950;53.086;21.576;2023-08-21T00:46:13;21.50;99.90
45207;DHT22;30950;53.086;21.576;2023-08-21T00:48:42;21.50;99.90
45207;DHT22;30950;53.086;21.576;2023-08-21T00:51:10;21.40;99.90
45207;DHT22;30950;53.086;21.576;2023-08-21T00:53:39;21.40;99.90
45207;DHT22;30950;53.086;21.576;2023-08-21T00:56:07;21.30;99.90
45207;DHT22;30950;53.086;21.576;2023-08-21T00:58:35;21.30;99.90
45207;DHT22;30950;53.086;21.576;2023-08-21T01:01:02;21.30;99.90
45207;DHT22;30950;53.086;21.576;2023-08-21T01:03:32;21.30;99.90
45207;DHT22;30950;53.086;21.576;2023-08-21T01:05:59;21.30;99.90
45207;DHT22;30950;53.086;21.576;2023-08-21T01:11:14;21.20;99.90
45207;DHT22;30950;53.086;21.576;2023-08-21T01:14:08;21.20;99.90
45207;DHT22;30950;53.086;21.576;2023-08-21T01:16:38;21.20;99.90
45207;DHT22;30950;53.086;21.576;2023-08-21T01:19:20;21.20;99.90
45207;DHT22;30950;53.086;21.576;2023-08-21T01:21:51;21.10;99.90
45207;DHT22;30950;53.086;21.576;2023-08-21T01:24:20;21.10;99.90
45207;DHT22;30950;53.086;21.576;2023-08-21T01:26:47;21.10;99.90
45207;DHT22;30950;53.086;21.576;2023-08-21T01:29:15;21.10;99.90
45207;DHT22;30950;53.086;21.576;2023-08-21T01:31:47;21.10;99.90
45207;DHT22;30950;53.086;21.576;2023-08-21T01:34:16;21.10;99.90
45207;DHT22;30950;53.086;21.576;2023-08-21T01:36:44;21.10;99.90
45207;DHT22;30950;53.086;21.576;2023-08-21T01:39:12;21.00;99.90
45207;DHT22;30950;53.086;21.576;2023-08-21T01:41:41;21.00;99.90
45207;DHT22;30950;53.086;21.576;2023-08-21T01:44:09;20.90;99.90
45207;DHT22;30950;53.086;21.576;2023-08-21T01:46:36;20.90;99.90
45207;DHT22;30950;53.086;21.576;2023-08-21T01:49:04;20.80;99.90
45207;DHT22;30950;53.086;21.576;2023-08-21T01:51:31;20.80;99.90
45207;DHT22;30950;53.086;21.576;2023-08-21T01:54:01;20.80;99.90
45207;DHT22;30950;53.086;21.576;2023-08-21T01:56:29;20.70;99.90
45207;DHT22;30950;53.086;21.576;2023-08-21T01:58:57;20.70;99.90
45207;DHT22;30950;53.086;21.576;2023-08-21T02:01:24;20.70;99.90
45207;DHT22;30950;53.086;21.576;2023-08-21T02:03:52;20.60;99.90
45207;DHT22;30950;53.086;21.576;2023-08-21T02:06:19;20.60;99.90
45207;DHT22;30950;53.086;21.576;2023-08-21T02:08:47;20.50;99.90
45207;DHT22;30950;53.086;21.576;2023-08-21T02:11:14;20.50;99.90
45207;DHT22;30950;53.086;21.576;2023-08-21T02:13:41;20.50;99.90
45207;DHT22;30950;53.086;21.576;2023-08-21T02:16:09;20.40;99.90
45207;DHT22;30950;53.086;21.576;2023-08-21T02:18:37;20.40;99.90
45207;DHT22;30950;53.086;21.576;2023-08-21T02:21:04;20.40;99.90
45207;DHT22;30950;53.086;21.576;2023-08-21T02:23:32;20.40;99.90
45207;DHT22;30950;53.086;21.576;2023-08-21T02:25:59;20.40;99.90
45207;DHT22;30950;53.086;21.576;2023-08-21T02:28:27;20.40;99.90
45207;DHT22;30950;53.086;21.576;2023-08-21T02:30:54;20.40;99.90
45207;DHT22;30950;53.086;21.576;2023-08-21T02:33:21;20.30;99.90
45207;DHT22;30950;53.086;21.576;2023-08-21T02:35:49;20.40;99.90
45207;DHT22;30950;53.086;21.576;2023-08-21T02:38:16;20.30;99.90
45207;DHT22;30950;53.086;21.576;2023-08-21T02:40:44;20.30;99.90
45207;DHT22;30950;53.086;21.576;2023-08-21T02:43:11;20.30;99.90
45207;DHT22;30950;53.086;21.576;2023-08-21T02:45:38;20.30;99.90
45207;DHT22;30950;53.086;21.576;2023-08-21T02:48:06;20.20;99.90
45207;DHT22;30950;53.086;21.576;2023-08-21T02:50:33;20.20;99.90
45207;DHT22;30950;53.086;21.576;2023-08-21T02:53:01;20.20;99.90
45207;DHT22;30950;53.086;21.576;2023-08-21T02:55:28;20.10;99.90
45207;DHT22;30950;53.086;21.576;2023-08-21T02:57:56;20.10;99.90
45207;DHT22;30950;53.086;21.576;2023-08-21T03:00:23;20.10;99.90
45207;DHT22;30950;53.086;21.576;2023-08-21T03:02:51;20.10;99.90
45207;DHT22;30950;53.086;21.576;2023-08-21T03:05:18;20.10;99.90
45207;DHT22;30950;53.086;21.576;2023-08-21T03:07:46;20.10;99.90
45207;DHT22;30950;53.086;21.576;2023-08-21T03:10:14;20.00;99.90
45207;DHT22;30950;53.086;21.576;2023-08-21T03:12:44;20.00;99.90
45207;DHT22;30950;53.086;21.576;2023-08-21T03:15:12;20.00;99.90
45207;DHT22;30950;53.086;21.576;2023-08-21T03:17:39;19.90;99.90
45207;DHT22;30950;53.086;21.576;2023-08-21T03:20:08;19.90;99.90
45207;DHT22;30950;53.086;21.576;2023-08-21T03:22:36;19.90;99.90
45207;DHT22;30950;53.086;21.576;2023-08-21T03:25:04;19.90;99.90
45207;DHT22;30950;53.086;21.576;2023-08-21T03:27:32;20.00;99.90
45207;DHT22;30950;53.086;21.576;2023-08-21T03:30:00;20.00;99.90
45207;DHT22;30950;53.086;21.576;2023-08-21T03:32:28;20.00;99.90
45207;DHT22;30950;53.086;21.576;2023-08-21T03:34:56;20.00;99.90
45207;DHT22;30950;53.086;21.576;2023-08-21T03:37:24;20.00;99.90
45207;DHT22;30950;53.086;21.576;2023-08-21T03:39:51;20.00;99.90
45207;DHT22;30950;53.086;21.576;2023-08-21T03:42:18;20.00;99.90
45207;DHT22;30950;53.086;21.576;2023-08-21T03:44:46;20.00;99.90
45207;DHT22;30950;53.086;21.576;2023-08-21T03:47:17;20.10;99.90
45207;DHT22;30950;53.086;21.576;2023-08-21T03:49:52;20.00;99.90
45207;DHT22;30950;53.086;21.576;2023-08-21T03:52:23;20.00;99.90
45207;DHT22;30950;53.086;21.576;2023-08-21T03:54:50;20.00;99.90
45207;DHT22;30950;53.086;21.576;2023-08-21T03:57:17;20.00;99.90
45207;DHT22;30950;53.086;21.576;2023-08-21T03:59:45;20.00;99.90
45207;DHT22;30950;53.086;21.576;2023-08-21T04:02:13;20.00;99.90
45207;DHT22;30950;53.086;21.576;2023-08-21T04:04:40;20.00;99.90
45207;DHT22;30950;53.086;21.576;2023-08-21T04:07:08;20.00;99.90
45207;DHT22;30950;53.086;21.576;2023-08-21T04:09:38;20.10;99.90
45207;DHT22;30950;53.086;21.576;2023-08-21T04:12:05;20.00;99.90
45207;DHT22;30950;53.086;21.576;2023-08-21T04:14:33;20.10;99.90
45207;DHT22;30950;53.086;21.576;2023-08-21T04:17:00;20.00;99.90
45207;DHT22;30950;53.086;21.576;2023-08-21T04:19:27;20.10;99.90
45207;DHT22;30950;53.086;21.576;2023-08-21T04:22:01;20.10;99.90
45207;DHT22;30950;53.086;21.576;2023-08-21T04:24:29;20.00;99.90
45207;DHT22;30950;53.086;21.576;2023-08-21T04:26:57;20.10;99.90
45207;DHT22;30950;53.086;21.576;2023-08-21T04:29:24;20.10;99.90
45207;DHT22;30950;53.086;21.576;2023-08-21T04:31:52;20.10;99.90
45207;DHT22;30950;53.086;21.576;2023-08-21T04:34:19;20.20;99.90
45207;DHT22;30950;53.086;21.576;2023-08-21T04:36:46;20.20;99.90
45207;DHT22;30950;53.086;21.576;2023-08-21T04:39:14;20.20;99.90
45207;DHT22;30950;53.086;21.576;2023-08-21T04:41:41;20.20;99.90
45207;DHT22;30950;53.086;21.576;2023-08-21T04:44:09;20.20;99.90
45207;DHT22;30950;53.086;21.576;2023-08-21T04:46:37;20.20;99.90
45207;DHT22;30950;53.086;21.576;2023-08-21T04:49:05;20.30;99.90
45207;DHT22;30950;53.086;21.576;2023-08-21T04:51:33;20.30;99.90
45207;DHT22;30950;53.086;21.576;2023-08-21T04:54:02;20.30;99.90
45207;DHT22;30950;53.086;21.576;2023-08-21T04:56:29;20.30;99.90
45207;DHT22;30950;53.086;21.576;2023-08-21T04:58:56;20.30;99.90
45207;DHT22;30950;53.086;21.576;2023-08-21T05:01:26;20.30;99.90
45207;DHT22;30950;53.086;21.576;2023-08-21T05:03:54;20.30;99.90
45207;DHT22;30950;53.086;21.576;2023-08-21T05:06:23;20.30;99.90
45207;DHT22;30950;53.086;21.576;2023-08-21T05:08:51;20.20;99.90
45207;DHT22;30950;53.086;21.576;2023-08-21T05:11:19;20.30;99.90
45207;DHT22;30950;53.086;21.576;2023-08-21T05:13:47;20.30;99.90
45207;DHT22;30950;53.086;21.576;2023-08-21T05:16:17;20.30;99.90
45207;DHT22;30950;53.086;21.576;2023-08-21T05:18:45;20.30;99.90
45207;DHT22;30950;53.086;21.576;2023-08-21T05:21:13;20.30;99.90
45207;DHT22;30950;53.086;21.576;2023-08-21T05:23:41;20.40;99.90
45207;DHT22;30950;53.086;21.576;2023-08-21T05:26:10;20.40;99.90
45207;DHT22;30950;53.086;21.576;2023-08-21T05:28:38;20.40;99.90
45207;DHT22;30950;53.086;21.576;2023-08-21T05:31:05;20.50;99.90
45207;DHT22;30950;53.086;21.576;2023-08-21T05:33:45;20.40;99.90
45207;DHT22;30950;53.086;21.576;2023-08-21T05:36:13;20.40;99.90
45207;DHT22;30950;53.086;21.576;2023-08-21T05:38:41;20.40;99.90
45207;DHT22;30950;53.086;21.576;2023-08-21T05:41:08;20.40;99.90
45207;DHT22;30950;53.086;21.576;2023-08-21T05:43:35;20.40;99.90
45207;DHT22;30950;53.086;21.576;2023-08-21T05:46:05;20.40;99.90
45207;DHT22;30950;53.086;21.576;2023-08-21T05:48:33;20.50;99.90
45207;DHT22;30950;53.086;21.576;2023-08-21T05:51:01;20.40;99.90
45207;DHT22;30950;53.086;21.576;2023-08-21T05:53:28;20.40;99.90
45207;DHT22;30950;53.086;21.576;2023-08-21T05:55:56;20.50;99.90
45207;DHT22;30950;53.086;21.576;2023-08-21T05:58:24;20.50;99.90
45207;DHT22;30950;53.086;21.576;2023-08-21T06:00:56;20.40;99.90
45207;DHT22;30950;53.086;21.576;2023-08-21T06:03:24;20.50;99.90
45207;DHT22;30950;53.086;21.576;2023-08-21T06:06:30;20.50;99.90
45207;DHT22;30950;53.086;21.576;2023-08-21T06:08:57;20.60;99.90
45207;DHT22;30950;53.086;21.576;2023-08-21T06:11:25;20.70;99.90
45207;DHT22;30950;53.086;21.576;2023-08-21T06:13:52;20.80;99.90
45207;DHT22;30950;53.086;21.576;2023-08-21T06:16:20;20.90;99.90
45207;DHT22;30950;53.086;21.576;2023-08-21T06:18:48;21.00;99.90
45207;DHT22;30950;53.086;21.576;2023-08-21T06:21:16;21.10;99.90
45207;DHT22;30950;53.086;21.576;2023-08-21T06:23:43;21.20;99.90
45207;DHT22;30950;53.086;21.576;2023-08-21T06:26:11;21.20;99.90
45207;DHT22;30950;53.086;21.576;2023-08-21T06:28:38;21.30;99.90
45207;DHT22;30950;53.086;21.576;2023-08-21T06:31:08;21.40;99.90
45207;DHT22;30950;53.086;21.576;2023-08-21T06:33:36;21.50;99.90
45207;DHT22;30950;53.086;21.576;2023-08-21T06:36:04;21.60;99.90
45207;DHT22;30950;53.086;21.576;2023-08-21T06:38:32;21.70;99.90
45207;DHT22;30950;53.086;21.576;2023-08-21T06:41:03;21.70;99.90
45207;DHT22;30950;53.086;21.576;2023-08-21T06:43:36;21.80;99.90
45207;DHT22;30950;53.086;21.576;2023-08-21T06:46:03;21.80;99.90
45207;DHT22;30950;53.086;21.576;2023-08-21T06:48:31;21.90;99.90
45207;DHT22;30950;53.086;21.576;2023-08-21T06:50:58;22.00;99.90
45207;DHT22;30950;53.086;21.576;2023-08-21T06:53:26;22.10;99.90
45207;DHT22;30950;53.086;21.576;2023-08-21T06:55:53;22.20;99.90
45207;DHT22;30950;53.086;21.576;2023-08-21T06:58:21;22.30;99.90
45207;DHT22;30950;53.086;21.576;2023-08-21T07:00:49;22.40;99.90
45207;DHT22;30950;53.086;21.576;2023-08-21T07:03:16;22.50;99.90
45207;DHT22;30950;53.086;21.576;2023-08-21T07:05:46;22.50;99.90
45207;DHT22;30950;53.086;21.576;2023-08-21T07:08:15;22.50;99.90
45207;DHT22;30950;53.086;21.576;2023-08-21T07:10:42;22.60;99.90
45207;DHT22;30950;53.086;21.576;2023-08-21T07:13:10;22.60;99.90
45207;DHT22;30950;53.086;21.576;2023-08-21T07:15:37;22.60;99.90
45207;DHT22;30950;53.086;21.576;2023-08-21T07:18:04;22.60;99.90
45207;DHT22;30950;53.086;21.576;2023-08-21T07:20:32;22.60;99.90
45207;DHT22;30950;53.086;21.576;2023-08-21T07:23:00;22.60;99.90
45207;DHT22;30950;53.086;21.576;2023-08-21T07:25:27;22.60;99.90
45207;DHT22;30950;53.086;21.576;2023-08-21T07:27:58;22.60;99.90
45207;DHT22;30950;53.086;21.576;2023-08-21T07:30:26;22.70;99.90
45207;DHT22;30950;53.086;21.576;2023-08-21T07:32:53;22.70;99.90
45207;DHT22;30950;53.086;21.576;2023-08-21T07:35:21;22.70;99.90
45207;DHT22;30950;53.086;21.576;2023-08-21T07:37:48;22.80;99.90
45207;DHT22;30950;53.086;21.576;2023-08-21T07:40:16;22.90;99.90
45207;DHT22;30950;53.086;21.576;2023-08-21T07:42:43;23.00;99.90
45207;DHT22;30950;53.086;21.576;2023-08-21T07:45:11;23.10;99.90
45207;DHT22;30950;53.086;21.576;2023-08-21T07:47:38;23.20;99.90
45207;DHT22;30950;53.086;21.576;2023-08-21T07:50:06;23.20;99.90
45207;DHT22;30950;53.086;21.576;2023-08-21T07:52:34;23.20;99.90
45207;DHT22;30950;53.086;21.576;2023-08-21T07:55:03;23.20;99.90
45207;DHT22;30950;53.086;21.576;2023-08-21T07:57:31;23.20;99.90
45207;DHT22;30950;53.086;21.576;2023-08-21T07:59:58;23.10;99.90
45207;DHT22;30950;53.086;21.576;2023-08-21T08:02:25;23.10;99.90
45207;DHT22;30950;53.086;21.576;2023-08-21T08:04:53;23.10;99.90
45207;DHT22;30950;53.086;21.576;2023-08-21T08:07:20;23.10;99.90
45207;DHT22;30950;53.086;21.576;2023-08-21T08:09:48;23.10;99.90
45207;DHT22;30950;53.086;21.576;2023-08-21T08:12:15;23.20;99.90
45207;DHT22;30950;53.086;21.576;2023-08-21T08:14:42;23.10;99.90
45207;DHT22;30950;53.086;21.576;2023-08-21T08:17:10;23.10;99.90
45207;DHT22;30950;53.086;21.576;2023-08-21T08:19:37;23.10;99.90
45207;DHT22;30950;53.086;21.576;2023-08-21T08:22:04;23.00;99.90
45207;DHT22;30950;53.086;21.576;2023-08-21T08:24:32;23.00;99.90
45207;DHT22;30950;53.086;21.576;2023-08-21T08:26:59;22.80;99.90
45207;DHT22;30950;53.086;21.576;2023-08-21T08:29:27;22.80;99.90
45207;DHT22;30950;53.086;21.576;2023-08-21T08:31:54;22.60;99.90
45207;DHT22;30950;53.086;21.576;2023-08-21T08:34:22;22.60;99.90
45207;DHT22;30950;53.086;21.576;2023-08-21T08:36:49;22.50;99.90
45207;DHT22;30950;53.086;21.576;2023-08-21T08:39:16;22.40;99.90
45207;DHT22;30950;53.086;21.576;2023-08-21T08:41:57;22.30;99.90
45207;DHT22;30950;53.086;21.576;2023-08-21T08:44:26;22.10;99.90
45207;DHT22;30950;53.086;21.576;2023-08-21T08:46:54;21.90;99.90
45207;DHT22;30950;53.086;21.576;2023-08-21T08:49:22;21.80;99.90
45207;DHT22;30950;53.086;21.576;2023-08-21T08:51:50;21.70;99.90
45207;DHT22;30950;53.086;21.576;2023-08-21T08:54:22;21.70;99.90
45207;DHT22;30950;53.086;21.576;2023-08-21T08:56:49;21.60;99.90
45207;DHT22;30950;53.086;21.576;2023-08-21T08:59:17;21.50;99.90
45207;DHT22;30950;53.086;21.576;2023-08-21T09:01:44;21.50;99.90
45207;DHT22;30950;53.086;21.576;2023-08-21T09:04:12;21.50;99.90
45207;DHT22;30950;53.086;21.576;2023-08-21T09:06:39;21.50;99.90
45207;DHT22;30950;53.086;21.576;2023-08-21T09:09:07;21.40;99.90
45207;DHT22;30950;53.086;21.576;2023-08-21T09:11:35;21.40;99.90
45207;DHT22;30950;53.086;21.576;2023-08-21T09:14:03;21.40;99.90
45207;DHT22;30950;53.086;21.576;2023-08-21T09:16:30;21.40;99.90
45207;DHT22;30950;53.086;21.576;2023-08-21T09:18:58;21.40;99.90
45207;DHT22;30950;53.086;21.576;2023-08-21T09:21:25;21.40;99.90
45207;DHT22;30950;53.086;21.576;2023-08-21T09:23:59;21.30;99.90
45207;DHT22;30950;53.086;21.576;2023-08-21T09:26:27;21.30;99.90
45207;DHT22;30950;53.086;21.576;2023-08-21T09:28:59;21.30;99.90
45207;DHT22;30950;53.086;21.576;2023-08-21T09:31:31;21.20;99.90
45207;DHT22;30950;53.086;21.576;2023-08-21T09:34:00;21.20;99.90
45207;DHT22;30950;53.086;21.576;2023-08-21T09:36:32;21.10;99.90
45207;DHT22;30950;53.086;21.576;2023-08-21T09:39:02;21.10;99.90
45207;DHT22;30950;53.086;21.576;2023-08-21T09:41:30;21.00;99.90
45207;DHT22;30950;53.086;21.576;2023-08-21T09:44:01;21.10;99.90
45207;DHT22;30950;53.086;21.576;2023-08-21T09:46:30;21.20;99.90
45207;DHT22;30950;53.086;21.576;2023-08-21T09:48:58;21.30;99.90
45207;DHT22;30950;53.086;21.576;2023-08-21T09:51:26;21.50;99.90
45207;DHT22;30950;53.086;21.576;2023-08-21T09:53:55;21.70;99.90
45207;DHT22;30950;53.086;21.576;2023-08-21T09:56:24;21.90;99.90
45207;DHT22;30950;53.086;21.576;2023-08-21T09:58:52;22.10;99.90
45207;DHT22;30950;53.086;21.576;2023-08-21T10:01:21;22.20;99.90
45207;DHT22;30950;53.086;21.576;2023-08-21T10:03:49;22.40;99.90
45207;DHT22;30950;53.086;21.576;2023-08-21T10:06:17;22.40;99.90
45207;DHT22;30950;53.086;21.576;2023-08-21T10:08:53;22.50;99.90
45207;DHT22;30950;53.086;21.576;2023-08-21T10:11:21;22.70;99.90
45207;DHT22;30950;53.086;21.576;2023-08-21T10:13:50;22.80;99.90
45207;DHT22;30950;53.086;21.576;2023-08-21T10:16:18;23.00;99.90
45207;DHT22;30950;53.086;21.576;2023-08-21T10:18:49;23.20;99.90
45207;DHT22;30950;53.086;21.576;2023-08-21T10:21:21;23.40;99.90
45207;DHT22;30950;53.086;21.576;2023-08-21T10:23:50;23.70;99.90
45207;DHT22;30950;53.086;21.576;2023-08-21T10:26:20;23.90;99.90
45207;DHT22;30950;53.086;21.576;2023-08-21T10:28:54;24.00;99.90
45207;DHT22;30950;53.086;21.576;2023-08-21T10:33:55;24.70;99.90
45207;DHT22;30950;53.086;21.576;2023-08-21T10:39:28;25.80;99.90
45207;DHT22;30950;53.086;21.576;2023-08-21T10:42:08;26.40;99.90
45207;DHT22;30950;53.086;21.576;2023-08-21T10:47:21;27.80;99.90
45207;DHT22;30950;53.086;21.576;2023-08-21T10:50:01;28.00;99.30
45207;DHT22;30950;53.086;21.576;2023-08-21T10:52:30;28.00;98.30
45207;DHT22;30950;53.086;21.576;2023-08-21T10:55:01;27.70;97.20
45207;DHT22;30950;53.086;21.576;2023-08-21T10:57:29;27.50;96.20
45207;DHT22;30950;53.086;21.576;2023-08-21T11:00:08;27.30;97.10
45207;DHT22;30950;53.086;21.576;2023-08-21T11:02:40;27.10;96.60
45207;DHT22;30950;53.086;21.576;2023-08-21T11:05:09;26.90;96.80
45207;DHT22;30950;53.086;21.576;2023-08-21T11:10:07;26.60;95.70
45207;DHT22;30950;53.086;21.576;2023-08-21T11:12:39;26.40;92.80
45207;DHT22;30950;53.086;21.576;2023-08-21T11:15:17;26.40;92.20
45207;DHT22;30950;53.086;21.576;2023-08-21T11:17:59;26.40;91.10
45207;DHT22;30950;53.086;21.576;2023-08-21T11:20:32;26.50;90.40
45207;DHT22;30950;53.086;21.576;2023-08-21T11:23:00;26.50;88.80
45207;DHT22;30950;53.086;21.576;2023-08-21T11:25:30;26.60;86.20
45207;DHT22;30950;53.086;21.576;2023-08-21T11:27:58;26.70;85.50
45207;DHT22;30950;53.086;21.576;2023-08-21T11:30:26;26.70;81.90
45207;DHT22;30950;53.086;21.576;2023-08-21T11:33:10;26.70;80.70
45207;DHT22;30950;53.086;21.576;2023-08-21T11:35:39;26.70;77.00
45207;DHT22;30950;53.086;21.576;2023-08-21T11:38:13;26.70;78.90
45207;DHT22;30950;53.086;21.576;2023-08-21T11:40:40;26.90;76.30
45207;DHT22;30950;53.086;21.576;2023-08-21T11:43:07;26.90;76.20
45207;DHT22;30950;53.086;21.576;2023-08-21T11:45:36;27.00;76.60
45207;DHT22;30950;53.086;21.576;2023-08-21T11:48:23;27.00;76.40
45207;DHT22;30950;53.086;21.576;2023-08-21T11:50:50;27.10;75.80
45207;DHT22;30950;53.086;21.576;2023-08-21T11:53:36;27.20;75.20
45207;DHT22;30950;53.086;21.576;2023-08-21T11:56:15;27.30;73.30
45207;DHT22;30950;53.086;21.576;2023-08-21T11:58:45;27.30;68.10
45207;DHT22;30950;53.086;21.576;2023-08-21T12:01:21;27.40;69.20
45207;DHT22;30950;53.086;21.576;2023-08-21T12:03:49;27.40;68.30
45207;DHT22;30950;53.086;21.576;2023-08-21T12:06:24;27.40;68.10
45207;DHT22;30950;53.086;21.576;2023-08-21T12:08:52;27.50;69.00
45207;DHT22;30950;53.086;21.576;2023-08-21T12:11:21;27.60;67.20
45207;DHT22;30950;53.086;21.576;2023-08-21T12:13:48;27.70;66.60
45207;DHT22;30950;53.086;21.576;2023-08-21T12:16:15;27.70;65.90
45207;DHT22;30950;53.086;21.576;2023-08-21T12:18:43;27.70;65.70
45207;DHT22;30950;53.086;21.576;2023-08-21T12:21:10;27.80;65.80
45207;DHT22;30950;53.086;21.576;2023-08-21T12:23:38;27.90;65.30
45207;DHT22;30950;53.086;21.576;2023-08-21T12:26:05;28.00;65.00
45207;DHT22;30950;53.086;21.576;2023-08-21T12:28:32;28.00;64.90
45207;DHT22;30950;53.086;21.576;2023-08-21T12:31:00;28.10;63.20
45207;DHT22;30950;53.086;21.576;2023-08-21T12:33:27;28.10;63.10
45207;DHT22;30950;53.086;21.576;2023-08-21T12:35:55;28.20;62.40
45207;DHT22;30950;53.086;21.576;2023-08-21T12:38:22;28.20;60.50
45207;DHT22;30950;53.086;21.576;2023-08-21T12:40:52;28.30;59.60
45207;DHT22;30950;53.086;21.576;2023-08-21T12:43:19;28.30;57.40
45207;DHT22;30950;53.086;21.576;2023-08-21T12:45:46;28.50;56.80
45207;DHT22;30950;53.086;21.576;2023-08-21T12:48:14;28.60;56.60
45207;DHT22;30950;53.086;21.576;2023-08-21T12:50:42;28.60;55.40
45207;DHT22;30950;53.086;21.576;2023-08-21T12:53:09;28.80;56.20
45207;DHT22;30950;53.086;21.576;2023-08-21T12:55:36;28.90;56.20
45207;DHT22;30950;53.086;21.576;2023-08-21T12:58:04;29.20;57.40
45207;DHT22;30950;53.086;21.576;2023-08-21T13:00:32;29.60;56.00
45207;DHT22;30950;53.086;21.576;2023-08-21T13:02:59;30.20;56.50
45207;DHT22;30950;53.086;21.576;2023-08-21T13:05:27;30.60;52.80
45207;DHT22;30950;53.086;21.576;2023-08-21T13:07:54;30.80;51.60
45207;DHT22;30950;53.086;21.576;2023-08-21T13:10:22;31.00;50.70
45207;DHT22;30950;53.086;21.576;2023-08-21T13:12:49;31.40;51.00
45207;DHT22;30950;53.086;21.576;2023-08-21T13:15:17;31.80;48.50
45207;DHT22;30950;53.086;21.576;2023-08-21T13:17:44;32.20;47.90
45207;DHT22;30950;53.086;21.576;2023-08-21T13:20:12;32.50;47.50
45207;DHT22;30950;53.086;21.576;2023-08-21T13:25:15;33.00;44.30
45207;DHT22;30950;53.086;21.576;2023-08-21T13:27:42;32.90;44.80
45207;DHT22;30950;53.086;21.576;2023-08-21T13:30:11;33.00;44.70
45207;DHT22;30950;53.086;21.576;2023-08-21T13:32:38;33.00;45.30
45207;DHT22;30950;53.086;21.576;2023-08-21T13:35:06;33.10;44.80
45207;DHT22;30950;53.086;21.576;2023-08-21T13:37:39;33.00;43.90
45207;DHT22;30950;53.086;21.576;2023-08-21T13:40:07;32.90;44.50
45207;DHT22;30950;53.086;21.576;2023-08-21T13:42:41;32.60;44.20
45207;DHT22;30950;53.086;21.576;2023-08-21T13:45:13;32.60;45.20
45207;DHT22;30950;53.086;21.576;2023-08-21T13:47:46;32.70;44.00
45207;DHT22;30950;53.086;21.576;2023-08-21T13:50:18;32.70;45.10
45207;DHT22;30950;53.086;21.576;2023-08-21T13:52:47;32.60;45.30
45207;DHT22;30950;53.086;21.576;2023-08-21T13:55:15;32.70;45.80
45207;DHT22;30950;53.086;21.576;2023-08-21T13:57:44;32.60;45.00
45207;DHT22;30950;53.086;21.576;2023-08-21T14:00:12;32.10;45.60
45207;DHT22;30950;53.086;21.576;2023-08-21T14:02:40;31.70;45.90
45207;DHT22;30950;53.086;21.576;2023-08-21T14:05:10;31.40;45.70
45207;DHT22;30950;53.086;21.576;2023-08-21T14:07:38;31.40;45.30
45207;DHT22;30950;53.086;21.576;2023-08-21T14:10:07;31.30;44.90
45207;DHT22;30950;53.086;21.576;2023-08-21T14:12:35;31.30;44.90
45207;DHT22;30950;53.086;21.576;2023-08-21T14:15:07;31.30;45.70
45207;DHT22;30950;53.086;21.576;2023-08-21T14:17:34;31.10;46.00
45207;DHT22;30950;53.086;21.576;2023-08-21T14:20:03;31.10;46.30
45207;DHT22;30950;53.086;21.576;2023-08-21T14:22:30;31.00;46.10
45207;DHT22;30950;53.086;21.576;2023-08-21T14:24:59;30.80;46.20
45207;DHT22;30950;53.086;21.576;2023-08-21T14:27:26;30.70;46.60
45207;DHT22;30950;53.086;21.576;2023-08-21T14:29:54;30.30;46.90
45207;DHT22;30950;53.086;21.576;2023-08-21T14:32:22;30.10;47.30
45207;DHT22;30950;53.086;21.576;2023-08-21T14:34:50;29.80;47.70
45207;DHT22;30950;53.086;21.576;2023-08-21T14:37:17;29.60;48.10
45207;DHT22;30950;53.086;21.576;2023-08-21T14:39:44;29.40;48.70
45207;DHT22;30950;53.086;21.576;2023-08-21T14:42:12;29.20;49.00
45207;DHT22;30950;53.086;21.576;2023-08-21T14:44:41;29.00;49.40
45207;DHT22;30950;53.086;21.576;2023-08-21T14:47:08;28.80;49.90
45207;DHT22;30950;53.086;21.576;2023-08-21T14:49:36;28.70;50.50
45207;DHT22;30950;53.086;21.576;2023-08-21T14:52:04;28.60;50.80
45207;DHT22;30950;53.086;21.576;2023-08-21T14:54:33;28.60;51.20
45207;DHT22;30950;53.086;21.576;2023-08-21T14:57:02;28.70;51.30
45207;DHT22;30950;53.086;21.576;2023-08-21T14:59:29;28.60;51.20
45207;DHT22;30950;53.086;21.576;2023-08-21T15:01:56;28.60;51.40
45207;DHT22;30950;53.086;21.576;2023-08-21T15:04:24;28.50;51.50
45207;DHT22;30950;53.086;21.576;2023-08-21T15:06:51;28.30;51.70
45207;DHT22;30950;53.086;21.576;2023-08-21T15:09:19;28.00;52.30
45207;DHT22;30950;53.086;21.576;2023-08-21T15:11:46;28.10;52.90
45207;DHT22;30950;53.086;21.576;2023-08-21T15:14:14;28.20;53.00
45207;DHT22;30950;53.086;21.576;2023-08-21T15:16:41;28.20;53.00
45207;DHT22;30950;53.086;21.576;2023-08-21T15:19:09;28.10;52.60
45207;DHT22;30950;53.086;21.576;2023-08-21T15:21:38;28.00;52.80
45207;DHT22;30950;53.086;21.576;2023-08-21T15:24:08;27.90;52.90
45207;DHT22;30950;53.086;21.576;2023-08-21T15:26:36;28.00;52.80
45207;DHT22;30950;53.086;21.576;2023-08-21T15:29:03;28.10;52.80
45207;DHT22;30950;53.086;21.576;2023-08-21T15:31:30;28.30;52.90
45207;DHT22;30950;53.086;21.576;2023-08-21T15:33:58;28.40;52.70
45207;DHT22;30950;53.086;21.576;2023-08-21T15:36:25;28.20;52.30
45207;DHT22;30950;53.086;21.576;2023-08-21T15:38:53;28.10;52.70
45207;DHT22;30950;53.086;21.576;2023-08-21T15:41:20;28.10;53.00